createdAt,value
2023-01-04T00:02:17.424Z,4.97
2023-01-04T00:04:48.291Z,4.47
2023-01-04T00:07:18.967Z,5.10
2023-01-04T00:09:49.598Z,4.13
2023-01-04T00:12:20.325Z,5.77
2023-01-04T00:14:51.067Z,5.10
2023-01-04T00:17:21.987Z,4.93
2023-01-04T00:19:52.611Z,5.33
2023-01-04T00:22:23.216Z,5.13
2023-01-04T00:24:53.963Z,5.07
2023-01-04T00:27:24.541Z,4.60
2023-01-04T00:29:55.166Z,4.80
2023-01-04T00:32:25.928Z,5.20
2023-01-04T00:34:56.486Z,4.40
2023-01-04T00:37:27.102Z,4.30
2023-01-04T00:39:57.765Z,4.27
2023-01-04T00:42:28.311Z,4.73
2023-01-04T00:44:58.924Z,5.10
2023-01-04T00:47:29.623Z,4.17
2023-01-04T00:50:00.407Z,4.37
2023-01-04T00:52:30.983Z,5.23
2023-01-04T00:55:01.578Z,4.83
2023-01-04T00:57:32.209Z,4.47
2023-01-04T01:00:02.984Z,4.27
2023-01-04T01:02:33.873Z,4.73
2023-01-04T01:05:04.836Z,4.70
2023-01-04T01:07:35.478Z,6.43
2023-01-04T01:10:07.696Z,5.13
2023-01-04T01:12:38.316Z,4.43
2023-01-04T01:15:11.900Z,4.30
2023-01-04T01:17:42.576Z,4.57
2023-01-04T01:20:13.692Z,4.83
2023-01-04T01:22:44.841Z,5.93
2023-01-04T01:25:15.632Z,9.03
2023-01-04T01:27:46.256Z,6.63
2023-01-04T01:30:17.220Z,6.10
2023-01-04T01:32:47.840Z,5.27
2023-01-04T01:35:18.667Z,6.03
2023-01-04T01:37:49.329Z,6.90
2023-01-04T01:40:20.208Z,5.50
2023-01-04T01:42:50.940Z,4.73
2023-01-04T01:45:34.067Z,4.90
2023-01-04T01:48:08.919Z,5.57
2023-01-04T01:50:42.637Z,5.67
2023-01-04T01:53:14.669Z,5.03
2023-01-04T01:55:47.590Z,5.57
2023-01-04T01:58:21.250Z,5.73
2023-01-04T02:00:51.897Z,5.70
2023-01-04T02:03:25.337Z,5.83
2023-01-04T02:05:58.754Z,5.97
2023-01-04T02:08:29.852Z,6.20
2023-01-04T02:11:00.871Z,6.63
2023-01-04T02:13:52.661Z,6.80
2023-01-04T02:16:27.197Z,7.00
2023-01-04T02:19:01.958Z,7.43
2023-01-04T02:21:36.414Z,6.10
2023-01-04T02:27:34.968Z,6.07
2023-01-04T02:30:45.492Z,6.97
2023-01-04T02:33:23.721Z,7.37
2023-01-04T02:35:58.537Z,7.40
2023-01-04T02:38:32.173Z,6.10
2023-01-04T02:41:07.265Z,6.17
2023-01-04T02:43:58.635Z,6.97
2023-01-04T02:46:32.406Z,7.57
2023-01-04T02:49:22.089Z,7.10
2023-01-04T02:51:52.975Z,8.63
2023-01-04T02:54:28.601Z,8.67
2023-01-04T02:57:21.964Z,7.90
2023-01-04T03:00:19.668Z,8.50
2023-01-04T03:03:18.894Z,9.00
2023-01-04T03:06:11.649Z,8.70
2023-01-04T03:08:45.371Z,7.40
2023-01-04T03:11:37.065Z,7.10
2023-01-04T03:14:32.090Z,7.70
2023-01-04T03:16:46.167Z,8.80
2023-01-04T03:19:21.144Z,6.67
2023-01-04T03:21:52.073Z,6.97
2023-01-04T03:24:40.085Z,7.27
2023-01-04T03:27:29.207Z,7.20
2023-01-04T03:30:20.331Z,8.13
2023-01-04T03:33:28.500Z,7.63
2023-01-04T03:38:55.869Z,6.73
2023-01-04T03:41:46.647Z,6.90
2023-01-04T03:44:37.937Z,7.47
2023-01-04T03:47:29.021Z,7.90
2023-01-04T03:50:02.683Z,7.40
2023-01-04T03:52:35.042Z,9.70
2023-01-04T03:55:08.427Z,9.20
2023-01-04T03:57:39.987Z,8.87
2023-01-04T04:00:15.164Z,7.60
2023-01-04T04:02:48.339Z,6.70
2023-01-04T04:05:39.979Z,7.37
2023-01-04T04:08:27.793Z,8.17
2023-01-04T04:11:04.480Z,8.87
2023-01-04T04:13:35.107Z,8.83
2023-01-04T04:16:05.961Z,10.77
2023-01-04T04:18:36.667Z,9.33
2023-01-04T04:21:07.894Z,8.67
2023-01-04T04:23:57.348Z,7.70
2023-01-04T04:26:27.916Z,7.67
2023-01-04T04:28:58.468Z,6.83
2023-01-04T04:31:29.264Z,5.90
2023-01-04T04:33:59.904Z,8.37
2023-01-04T04:36:30.487Z,7.73
2023-01-04T04:39:01.163Z,9.60
2023-01-04T04:41:41.926Z,7.07
2023-01-04T04:44:14.622Z,7.60
2023-01-04T04:46:46.406Z,8.20
2023-01-04T04:49:18.046Z,7.63
2023-01-04T04:51:49.261Z,8.50
2023-01-04T04:54:22.481Z,8.17
2023-01-04T04:56:53.104Z,8.47
2023-01-04T04:59:23.888Z,8.10
2023-01-04T05:01:54.887Z,8.13
2023-01-04T05:04:26.320Z,7.23
2023-01-04T05:06:56.964Z,7.63
2023-01-04T05:09:27.563Z,8.50
2023-01-04T05:12:15.976Z,8.57
2023-01-04T05:14:46.659Z,7.83
2023-01-04T05:17:17.530Z,7.53
2023-01-04T05:19:48.493Z,6.80
2023-01-04T05:22:19.271Z,9.07
2023-01-04T05:24:49.956Z,8.03
2023-01-04T05:27:20.652Z,8.77
2023-01-04T05:30:08.734Z,9.10
2023-01-04T05:32:39.305Z,8.10
2023-01-04T05:35:11.234Z,7.93
2023-01-04T05:37:42.042Z,8.60
2023-01-04T05:40:13.609Z,7.53
2023-01-04T05:42:44.291Z,7.03
2023-01-04T05:45:16.794Z,7.97
2023-01-04T05:47:47.572Z,8.30
2023-01-04T05:50:18.659Z,7.80
2023-01-04T05:52:49.886Z,8.23
2023-01-04T05:55:21.115Z,8.53
2023-01-04T05:57:52.175Z,8.00
2023-01-04T06:00:23.073Z,8.27
2023-01-04T06:02:55.723Z,8.60
2023-01-04T06:05:27.199Z,9.07
2023-01-04T06:07:57.769Z,9.60
2023-01-04T06:10:28.401Z,10.83
2023-01-04T06:12:59.074Z,11.97
2023-01-04T06:15:29.820Z,11.23
2023-01-04T06:18:00.360Z,10.50
2023-01-04T06:20:31.253Z,10.50
2023-01-04T06:23:01.882Z,10.37
2023-01-04T06:25:32.566Z,7.57
2023-01-04T06:28:03.450Z,10.20
2023-01-04T06:30:34.483Z,7.73
2023-01-04T06:33:05.339Z,8.80
2023-01-04T06:35:36.229Z,7.80
2023-01-04T06:38:06.848Z,8.60
2023-01-04T06:40:37.566Z,8.73
2023-01-04T06:43:08.204Z,10.13
2023-01-04T06:45:38.918Z,12.57
2023-01-04T06:48:09.821Z,13.60
2023-01-04T06:50:40.517Z,13.77
2023-01-04T06:53:11.360Z,13.40
2023-01-04T06:55:41.992Z,13.00
2023-01-04T06:58:12.718Z,12.83
2023-01-04T07:00:43.429Z,13.53
2023-01-04T07:03:16.236Z,11.80
2023-01-04T07:05:46.725Z,11.50
2023-01-04T07:08:17.878Z,12.60
2023-01-04T07:10:49.087Z,11.17
2023-01-04T07:13:19.787Z,11.30
2023-01-04T07:15:50.851Z,10.00
2023-01-04T07:18:21.451Z,9.53
2023-01-04T07:20:52.393Z,11.30
2023-01-04T07:23:23.290Z,10.50
2023-01-04T07:25:54.018Z,10.43
2023-01-04T07:28:42.436Z,9.43
2023-01-04T07:31:13.146Z,10.27
2023-01-04T07:33:43.864Z,9.77
2023-01-04T07:36:14.570Z,10.30
2023-01-04T07:38:45.287Z,9.43
2023-01-04T07:41:16.063Z,9.10
2023-01-04T07:43:48.064Z,10.03
2023-01-04T07:46:18.842Z,10.13
2023-01-04T07:48:49.533Z,11.63
2023-01-04T07:51:20.205Z,10.17
2023-01-04T07:53:51.357Z,10.17
2023-01-04T07:56:22.210Z,11.63
2023-01-04T07:58:54.823Z,11.47
2023-01-04T08:01:26.207Z,11.17
2023-01-04T08:03:56.972Z,12.30
2023-01-04T08:06:27.557Z,11.80
2023-01-04T08:08:59.317Z,12.00
2023-01-04T08:11:30.325Z,10.90
2023-01-04T08:14:01.055Z,11.97
2023-01-04T08:16:33.631Z,12.73
2023-01-04T08:19:06.927Z,11.10
2023-01-04T08:21:38.799Z,11.47
2023-01-04T08:24:11.880Z,12.13
2023-01-04T08:26:42.808Z,10.60
2023-01-04T08:29:14.070Z,11.53
2023-01-04T08:31:45.056Z,10.23
2023-01-04T08:34:15.903Z,12.57
2023-01-04T08:36:53.501Z,11.63
2023-01-04T08:39:24.100Z,11.60
2023-01-04T08:42:00.237Z,11.50
2023-01-04T08:44:28.504Z,10.53
2023-01-04T08:46:59.771Z,12.20
2023-01-04T08:49:30.596Z,10.97
2023-01-04T08:52:01.331Z,11.03
2023-01-04T08:54:32.131Z,10.70
2023-01-04T08:57:02.731Z,15.03
2023-01-04T08:59:33.328Z,11.00
2023-01-04T09:02:05.974Z,11.73
2023-01-04T09:04:36.472Z,10.50
2023-01-04T09:07:07.105Z,12.27
2023-01-04T09:09:37.720Z,10.73
2023-01-04T09:12:09.017Z,10.80
2023-01-04T09:14:39.770Z,10.63
2023-01-04T09:17:10.364Z,10.23
2023-01-04T09:19:41.067Z,10.60
2023-01-04T09:22:11.863Z,9.10
2023-01-04T09:24:42.618Z,9.60
2023-01-04T09:27:13.260Z,10.30
2023-01-04T09:29:44.030Z,9.40
2023-01-04T09:32:17.013Z,9.47
2023-01-04T09:34:47.141Z,11.10
2023-01-04T09:37:17.746Z,9.60
2023-01-04T09:39:48.425Z,11.00
2023-01-04T09:42:23.738Z,10.27
2023-01-04T09:47:39.753Z,9.53
2023-01-04T09:50:14.763Z,8.90
2023-01-04T09:52:52.279Z,8.27
2023-01-04T09:55:37.294Z,8.77
2023-01-04T09:58:02.526Z,9.65
2023-01-04T10:00:43.415Z,7.90
2023-01-04T10:03:13.934Z,8.50
2023-01-04T10:05:44.967Z,8.70
2023-01-04T10:08:18.414Z,9.50
2023-01-04T10:10:56.384Z,8.10
2023-01-04T10:13:37.859Z,8.47
2023-01-04T10:16:17.351Z,8.07
2023-01-04T10:21:37.711Z,8.73
2023-01-04T10:24:18.167Z,7.67
2023-01-04T10:26:50.829Z,8.27
2023-01-04T10:29:29.317Z,8.03
2023-01-04T10:32:06.492Z,8.13
2023-01-04T10:34:41.598Z,7.50
2023-01-04T10:37:17.135Z,8.47
2023-01-04T10:39:48.679Z,8.50
2023-01-04T10:42:23.922Z,8.03
2023-01-04T10:45:06.581Z,7.63
2023-01-04T10:47:37.572Z,7.80
2023-01-04T10:50:12.598Z,7.80
2023-01-04T10:52:46.977Z,8.30
2023-01-04T10:55:21.286Z,7.53
2023-01-04T10:57:55.102Z,8.00
2023-01-04T11:00:29.927Z,8.03
2023-01-04T11:03:08.806Z,7.93
2023-01-04T11:05:39.599Z,7.23
2023-01-04T11:08:13.867Z,8.03
2023-01-04T11:10:47.560Z,8.03
2023-01-04T11:13:18.452Z,8.60
2023-01-04T11:15:49.539Z,7.87
2023-01-04T11:18:20.653Z,8.13
2023-01-04T11:20:51.440Z,7.53
2023-01-04T11:23:23.288Z,7.87
2023-01-04T11:25:57.188Z,8.13
2023-01-04T11:28:31.668Z,7.77
2023-01-04T11:31:05.767Z,8.00
2023-01-04T11:36:40.376Z,8.00
2023-01-04T11:39:20.491Z,7.20
2023-01-04T11:42:04.073Z,7.27
2023-01-04T11:44:36.665Z,7.33
2023-01-04T11:47:14.943Z,7.57
2023-01-04T11:49:45.587Z,7.50
2023-01-04T11:52:31.541Z,8.03
2023-01-04T11:55:18.613Z,7.73
2023-01-04T11:57:49.305Z,7.13
2023-01-04T12:00:21.683Z,7.00
2023-01-04T12:05:33.593Z,8.20
2023-01-04T12:08:04.668Z,7.77
2023-01-04T12:10:35.464Z,7.00
2023-01-04T12:13:08.715Z,7.00
2023-01-04T12:15:43.431Z,7.23
2023-01-04T12:18:18.353Z,7.60
2023-01-04T12:20:49.035Z,7.00
2023-01-04T12:23:20.644Z,7.57
2023-01-04T12:25:53.775Z,7.07
2023-01-04T12:28:37.199Z,6.87
2023-01-04T12:31:30.007Z,6.93
2023-01-04T12:34:18.597Z,6.70
2023-01-04T12:37:05.183Z,7.10
2023-01-04T12:39:43.713Z,6.47
2023-01-04T12:42:22.186Z,6.77
2023-01-04T12:45:30.120Z,7.07
2023-01-04T12:48:21.316Z,7.40
2023-01-04T12:54:07.300Z,6.47
2023-01-04T12:57:11.935Z,6.67
2023-01-04T12:59:55.638Z,6.00
2023-01-04T13:02:28.616Z,6.10
2023-01-04T13:05:45.410Z,4.90
2023-01-04T13:07:40.503Z,5.10
2023-01-04T13:10:24.519Z,5.90
2023-01-04T13:16:11.739Z,5.90
2023-01-04T13:18:45.768Z,5.37
2023-01-04T13:21:19.455Z,5.83
2023-01-04T13:23:53.201Z,5.87
2023-01-04T13:26:46.180Z,5.40
2023-01-04T13:29:23.022Z,4.80
2023-01-04T13:31:58.805Z,5.53
2023-01-04T13:34:32.601Z,4.27
2023-01-04T13:37:09.191Z,3.73
2023-01-04T13:39:42.039Z,4.00
2023-01-04T13:42:20.118Z,3.63
2023-01-04T13:45:31.639Z,4.17
2023-01-04T13:48:05.269Z,4.43
2023-01-04T13:50:42.615Z,4.40
2023-01-04T13:53:22.270Z,4.80
2023-01-04T13:55:54.190Z,4.60
2023-01-04T13:58:26.657Z,5.17
2023-01-04T14:01:00.627Z,5.33
2023-01-04T14:03:51.703Z,6.00
2023-01-04T14:06:26.378Z,5.03
2023-01-04T14:09:03.732Z,5.70
2023-01-04T14:11:57.059Z,5.90
2023-01-04T14:14:41.399Z,5.60
2023-01-04T14:17:34.592Z,4.47
2023-01-04T14:20:07.460Z,4.40
2023-01-04T14:22:44.398Z,4.70
2023-01-04T14:28:49.876Z,4.50
2023-01-04T14:31:35.749Z,4.40
2023-01-04T14:34:18.036Z,3.17
2023-01-04T14:36:48.720Z,3.53
2023-01-04T14:39:27.714Z,3.37
2023-01-04T14:42:00.297Z,3.20
2023-01-04T14:44:34.445Z,3.40
2023-01-04T14:47:07.740Z,3.43
2023-01-04T14:49:38.514Z,2.70
2023-01-04T14:52:15.632Z,3.20
2023-01-04T14:54:46.282Z,3.50
2023-01-04T14:57:16.947Z,3.87
2023-01-04T14:59:47.582Z,3.20
2023-01-04T15:02:19.505Z,3.27
2023-01-04T15:04:50.395Z,3.43
2023-01-04T15:07:36.816Z,3.43
2023-01-04T15:10:11.689Z,4.00
2023-01-04T15:12:42.407Z,3.33
2023-01-04T15:15:14.848Z,3.70
2023-01-04T15:17:45.437Z,3.53
2023-01-04T15:20:16.268Z,3.97
2023-01-04T15:22:47.039Z,3.80
2023-01-04T15:25:17.767Z,3.67
2023-01-04T15:27:48.692Z,4.00
2023-01-04T15:30:19.693Z,4.30
2023-01-04T15:32:50.383Z,4.00
2023-01-04T15:35:21.177Z,3.87
2023-01-04T15:37:52.345Z,3.90
2023-01-04T15:40:23.088Z,4.23
2023-01-04T15:43:00.247Z,4.07
2023-01-04T15:45:32.404Z,4.17
2023-01-04T15:48:04.067Z,4.00
2023-01-04T15:53:15.212Z,3.27
2023-01-04T15:55:45.819Z,3.83
2023-01-04T15:58:16.478Z,4.27
2023-01-04T16:00:54.280Z,4.43
2023-01-04T16:03:38.474Z,4.53
2023-01-04T16:06:11.611Z,4.10
2023-01-04T16:08:43.243Z,3.60
2023-01-04T16:11:16.696Z,3.80
2023-01-04T16:13:49.080Z,4.57
2023-01-04T16:16:21.177Z,3.77
2023-01-04T16:18:53.864Z,3.20
2023-01-04T16:21:26.209Z,4.20
2023-01-04T16:24:05.571Z,3.50
2023-01-04T16:26:31.734Z,3.80
2023-01-04T16:29:03.115Z,4.00
2023-01-04T16:31:37.055Z,4.50
2023-01-04T16:34:08.228Z,4.57
2023-01-04T16:36:38.818Z,4.27
2023-01-04T16:39:10.567Z,4.77
2023-01-04T16:41:41.329Z,4.50
2023-01-04T16:44:14.390Z,3.93
2023-01-04T16:46:46.622Z,4.27
2023-01-04T16:49:18.730Z,3.90
2023-01-04T16:51:50.086Z,3.90
2023-01-04T16:54:21.638Z,3.87
2023-01-04T16:56:52.281Z,3.83
2023-01-04T16:59:23.107Z,4.97
2023-01-04T17:01:58.179Z,4.20
2023-01-04T17:04:28.143Z,4.33
2023-01-04T17:06:58.976Z,4.30
2023-01-04T17:09:29.581Z,4.33
2023-01-04T17:14:34.529Z,3.67
2023-01-04T17:17:05.265Z,4.00
2023-01-04T17:19:35.815Z,4.43
2023-01-04T17:22:06.532Z,4.17
2023-01-04T17:24:37.182Z,4.27
2023-01-04T17:27:07.752Z,4.40
2023-01-04T17:29:38.439Z,4.90
2023-01-04T17:32:09.190Z,4.43
2023-01-04T17:34:39.859Z,4.83
2023-01-04T17:37:10.461Z,4.37
2023-01-04T17:39:41.118Z,6.30
2023-01-04T17:42:11.842Z,5.70
2023-01-04T17:44:42.481Z,5.27
2023-01-04T17:47:13.123Z,4.53
2023-01-04T17:49:43.780Z,4.50
2023-01-04T17:52:20.872Z,4.60
2023-01-04T17:54:46.824Z,4.20
2023-01-04T17:57:17.480Z,4.60
2023-01-04T17:59:48.144Z,4.63
2023-01-04T18:02:19.945Z,4.60
2023-01-04T18:04:50.628Z,4.70
2023-01-04T18:07:23.273Z,5.07
2023-01-04T18:09:54.279Z,3.97
2023-01-04T18:12:24.996Z,4.50
2023-01-04T18:14:55.624Z,5.03
2023-01-04T18:17:26.397Z,5.73
2023-01-04T18:19:58.582Z,6.10
2023-01-04T18:22:29.212Z,6.03
2023-01-04T18:24:59.919Z,5.60
2023-01-04T18:27:30.537Z,5.40
2023-01-04T18:30:01.140Z,5.53
2023-01-04T18:32:31.890Z,6.27
2023-01-04T18:35:04.514Z,6.63
2023-01-04T18:37:35.784Z,6.10
2023-01-04T18:40:08.508Z,5.87
2023-01-04T18:42:39.181Z,6.10
2023-01-04T18:45:12.156Z,6.40
2023-01-04T18:47:43.016Z,6.53
2023-01-04T18:50:13.792Z,5.77
2023-01-04T18:55:22.279Z,5.97
2023-01-04T18:57:52.889Z,5.73
2023-01-04T19:00:25.539Z,5.37
2023-01-04T19:02:56.221Z,5.93
2023-01-04T19:05:28.086Z,5.37
2023-01-04T19:07:58.693Z,6.63
2023-01-04T19:10:29.356Z,6.80
2023-01-04T19:13:00.011Z,6.27
2023-01-04T19:15:30.644Z,5.87
2023-01-04T19:18:01.268Z,5.90
2023-01-04T19:20:33.106Z,6.10
2023-01-04T19:23:05.082Z,5.67
2023-01-04T19:25:37.075Z,5.50
2023-01-04T19:28:11.093Z,5.37
2023-01-04T19:30:43.153Z,5.37
2023-01-04T19:33:14.450Z,5.07
2023-01-04T19:35:47.527Z,5.27
2023-01-04T19:38:18.194Z,5.10
2023-01-04T19:40:56.545Z,4.90
2023-01-04T19:43:27.526Z,4.83
2023-01-04T19:45:58.436Z,4.63
2023-01-04T19:48:29.487Z,4.10
2023-01-04T19:51:08.971Z,4.17
2023-01-04T19:53:40.651Z,5.03
2023-01-04T19:56:12.280Z,5.13
2023-01-04T19:58:43.424Z,5.20
2023-01-04T20:01:16.879Z,5.53
2023-01-04T20:03:48.161Z,6.17
2023-01-04T20:06:20.636Z,5.50
2023-01-04T20:08:51.466Z,6.27
2023-01-04T20:11:22.352Z,6.67
2023-01-04T20:13:53.220Z,5.90
2023-01-04T20:16:24.065Z,6.20
2023-01-04T20:18:59.037Z,5.63
2023-01-04T20:21:30.127Z,5.30
2023-01-04T20:24:01.372Z,5.50
2023-01-04T20:26:32.505Z,5.87
2023-01-04T20:29:04.589Z,6.03
2023-01-04T20:31:38.977Z,6.13
2023-01-04T20:34:09.443Z,6.57
2023-01-04T20:36:45.643Z,6.10
2023-01-04T20:39:16.559Z,5.60
2023-01-04T20:42:06.339Z,5.53
2023-01-04T20:44:38.460Z,5.57
2023-01-04T20:47:09.279Z,5.70
2023-01-04T20:49:39.958Z,6.40
2023-01-04T20:52:10.785Z,7.13
2023-01-04T20:54:41.623Z,7.47
2023-01-04T20:57:12.263Z,9.30
2023-01-04T20:59:42.983Z,9.07
2023-01-04T21:02:15.160Z,9.80
2023-01-04T21:04:46.954Z,7.30
2023-01-04T21:07:18.087Z,7.43
2023-01-04T21:09:48.983Z,7.57
2023-01-04T21:12:20.021Z,7.07
2023-01-04T21:14:50.683Z,6.40
2023-01-04T21:17:21.502Z,8.07
2023-01-04T21:19:52.042Z,8.17
2023-01-04T21:22:24.069Z,7.87
2023-01-04T21:24:54.838Z,6.63
2023-01-04T21:27:26.621Z,6.67
2023-01-04T21:29:57.225Z,7.20
2023-01-04T21:32:29.718Z,7.60
2023-01-04T21:35:00.454Z,7.50
2023-01-04T21:37:31.976Z,7.70
2023-01-04T21:40:02.541Z,7.80
2023-01-04T21:42:34.014Z,7.90
2023-01-04T21:45:05.063Z,7.50
2023-01-04T21:47:35.657Z,7.97
2023-01-04T21:50:13.302Z,7.40
2023-01-04T21:52:40.915Z,6.57
2023-01-04T21:55:12.351Z,7.60
2023-01-04T21:57:43.088Z,7.70
2023-01-04T22:00:15.443Z,6.93
2023-01-04T22:02:46.360Z,7.43
2023-01-04T22:05:17.318Z,6.70
2023-01-04T22:07:48.067Z,7.60
2023-01-04T22:10:19.234Z,7.50
2023-01-04T22:12:50.722Z,7.10
2023-01-04T22:15:21.340Z,8.53
2023-01-04T22:17:52.368Z,6.93
2023-01-04T22:20:23.040Z,5.53
2023-01-04T22:22:53.656Z,6.53
2023-01-04T22:25:24.256Z,6.30
2023-01-04T22:27:55.000Z,7.23
2023-01-04T22:30:25.723Z,7.63
2023-01-04T22:32:57.243Z,6.50
2023-01-04T22:35:27.855Z,7.07
2023-01-04T22:37:58.533Z,6.07
2023-01-04T22:40:29.184Z,6.40
2023-01-04T22:42:59.908Z,10.00
2023-01-04T22:45:30.696Z,5.33
2023-01-04T22:48:01.580Z,5.13
2023-01-04T22:50:33.303Z,6.20
2023-01-04T22:53:03.964Z,6.07
2023-01-04T22:55:59.897Z,11.10
2023-01-04T22:58:06.908Z,8.20
2023-01-04T23:00:37.832Z,6.23
2023-01-04T23:03:08.576Z,6.93
2023-01-04T23:05:43.170Z,6.30
2023-01-04T23:08:13.850Z,6.53
2023-01-04T23:10:44.558Z,7.77
2023-01-04T23:13:15.189Z,8.90
2023-01-04T23:15:45.825Z,7.57
2023-01-04T23:18:16.481Z,8.40
2023-01-04T23:20:48.580Z,7.80
2023-01-04T23:23:19.172Z,7.90
2023-01-04T23:25:49.781Z,7.37
2023-01-04T23:28:20.435Z,8.00
2023-01-04T23:30:51.208Z,9.10
2023-01-04T23:33:21.847Z,7.07
2023-01-04T23:35:52.498Z,9.60
2023-01-04T23:38:23.081Z,7.47
2023-01-04T23:40:53.744Z,7.43
2023-01-04T23:43:24.436Z,7.60
2023-01-04T23:45:55.084Z,7.80
2023-01-04T23:48:25.688Z,7.40
2023-01-04T23:50:59.812Z,7.40
2023-01-04T23:53:30.597Z,7.60
2023-01-04T23:56:03.901Z,6.43
2023-01-04T23:58:35.386Z,6.40
